Time;durP1;ratioP1;P1;durP2;ratioP2;P2;SDS_P1;SDS_P2;PMS_P1;PMS_P2;Temp;Humidity;BMP_temperature;BMP_pressure;BME280_temperature;BME280_humidity;BME280_pressure;Samples;Min_cycle;Max_cycle;Signal;HPM_P1;HPM_P2
2024/01/15 00:03:47;;;;;;;10.67;1.43;;;2.10;99.90;;;;;;20554399;28;20478;-41
2024/01/15 00:13:48;;;;;;;3.47;0.93;;;2.00;99.90;;;;;;20563161;28;20474;-41
2024/01/15 00:23:48;;;;;;;7.75;1.63;;;1.80;99.90;;;;;;20565234;28;20488;-43
2024/01/15 00:33:49;;;;;;;10.50;1.92;;;1.70;99.90;;;;;;20563149;28;20043;-42
2024/01/15 00:43:49;;;;;;;9.27;1.40;;;1.60;99.90;;;;;;20566635;28;22804;-42
2024/01/15 00:53:50;;;;;;;11.57;2.63;;;1.70;99.90;;;;;;20560624;28;20050;-42
2024/01/15 01:03:51;;;;;;;13.00;1.77;;;2.10;99.90;;;;;;20558626;28;20492;-42
2024/01/15 01:13:51;;;;;;;10.38;2.92;;;2.40;95.90;;;;;;20572899;28;20454;-43
2024/01/15 01:23:52;;;;;;;6.70;0.88;;;2.50;63.90;;;;;;20574926;28;20046;-41
2024/01/15 01:33:52;;;;;;;10.40;1.90;;;2.50;61.00;;;;;;20580197;28;20491;-41
2024/01/15 01:43:53;;;;;;;6.18;1.00;;;2.60;60.50;;;;;;20576819;28;20042;-42
2024/01/15 01:53:54;;;;;;;10.00;1.90;;;2.60;36.70;;;;;;20576348;28;20086;-42
2024/01/15 02:03:56;;;;;;;7.05;0.85;;;2.50;41.50;;;;;;20574659;28;20409;-42
2024/01/15 02:13:57;;;;;;;4.45;0.30;;;2.60;40.50;;;;;;20585775;28;20046;-43
2024/01/15 02:23:58;;;;;;;5.05;0.30;;;2.50;38.60;;;;;;20591618;28;20250;-41
2024/01/15 02:33:59;;;;;;;5.45;0.55;;;2.30;55.40;;;;;;20583499;28;20049;-42
2024/01/15 02:43:59;;;;;;;7.40;0.30;;;2.30;79.60;;;;;;20589667;28;20439;-43
2024/01/15 02:54:00;;;;;;;5.85;0.35;;;2.40;74.70;;;;;;20584348;28;20054;-42
2024/01/15 03:04:00;;;;;;;3.83;0.40;;;2.40;79.20;;;;;;20580664;28;20054;-42
2024/01/15 03:14:01;;;;;;;3.45;0.52;;;2.40;82.80;;;;;;20582438;28;20411;-42
2024/01/15 03:24:02;;;;;;;4.20;0.40;;;2.20;94.90;;;;;;20583549;28;20042;-43
2024/01/15 03:34:03;;;;;;;3.97;0.80;;;2.20;99.90;;;;;;20581246;28;20121;-42
2024/01/15 03:44:03;;;;;;;3.53;0.38;;;2.20;99.90;;;;;;20582940;28;20505;-43
2024/01/15 03:54:04;;;;;;;9.07;0.65;;;2.20;99.90;;;;;;20579163;28;20038;-43
2024/01/15 04:04:05;;;;;;;5.75;1.95;;;2.50;99.90;;;;;;20578852;28;20038;-43
2024/01/15 04:14:05;;;;;;;5.75;0.50;;;2.40;99.90;;;;;;20576778;28;20057;-42
2024/01/15 04:24:06;;;;;;;6.28;0.50;;;2.30;99.90;;;;;;20582551;28;20405;-43
2024/01/15 04:34:07;;;;;;;6.20;0.52;;;2.20;99.90;;;;;;20580260;28;20579;-43
2024/01/15 04:44:07;;;;;;;2.90;0.40;;;2.10;99.90;;;;;;20582672;28;20074;-43
2024/01/15 04:54:08;;;;;;;10.85;1.10;;;2.10;99.90;;;;;;20575563;28;20405;-42
2024/01/15 05:04:08;;;;;;;3.83;0.52;;;2.30;99.90;;;;;;20583969;28;20039;-43
2024/01/15 05:14:09;;;;;;;3.95;0.50;;;2.30;99.90;;;;;;20590369;28;20073;-42
2024/01/15 05:24:10;;;;;;;2.75;0.20;;;2.10;99.90;;;;;;20591801;28;20066;-42
2024/01/15 05:34:11;;;;;;;5.43;0.40;;;2.00;99.90;;;;;;20592165;28;20038;-43
2024/01/15 05:44:11;;;;;;;4.87;0.40;;;1.90;99.90;;;;;;20589178;28;20046;-43
2024/01/15 05:54:12;;;;;;;1.03;0.30;;;1.70;99.90;;;;;;20591801;28;20786;-42
2024/01/15 06:04:12;;;;;;;2.45;0.50;;;2.00;99.90;;;;;;20588705;28;20460;-42
2024/01/15 06:14:13;;;;;;;3.50;0.60;;;2.20;99.90;;;;;;20588721;28;20125;-42
2024/01/15 06:24:14;;;;;;;4.18;0.70;;;2.20;99.90;;;;;;20589179;28;20542;-43
2024/01/15 06:34:15;;;;;;;4.05;0.80;;;2.10;99.90;;;;;;20567005;28;20054;-42
2024/01/15 06:44:16;;;;;;;4.57;1.00;;;2.10;99.90;;;;;;20573757;28;20042;-43
2024/01/15 06:54:17;;;;;;;5.90;1.05;;;2.10;99.90;;;;;;20577456;28;20070;-43
2024/01/15 07:04:17;;;;;;;5.35;0.88;;;1.90;99.90;;;;;;20565893;28;20038;-42
2024/01/15 07:14:18;;;;;;;4.38;1.00;;;2.20;99.90;;;;;;20566595;28;20042;-42
2024/01/15 07:24:19;;;;;;;3.37;0.50;;;2.10;99.90;;;;;;20577859;28;20507;-43
2024/01/15 07:34:19;;;;;;;5.40;0.80;;;2.10;99.90;;;;;;20571245;28;20832;-43
2024/01/15 07:44:20;;;;;;;4.25;0.50;;;2.00;99.90;;;;;;20577209;28;20476;-43
2024/01/15 07:54:20;;;;;;;8.00;0.80;;;2.00;99.90;;;;;;20572409;28;20449;-44
2024/01/15 08:04:24;;;;;;;4.60;0.60;;;1.90;99.90;;;;;;20568863;28;20449;-41
2024/01/15 08:14:27;;;;;;;3.10;0.57;;;1.80;99.90;;;;;;20569199;28;20034;-41
2024/01/15 08:24:28;;;;;;;3.63;0.40;;;1.70;99.90;;;;;;20567286;28;20157;-42
2024/01/15 08:34:29;;;;;;;7.07;1.10;;;1.70;99.90;;;;;;20574461;28;20172;-42
2024/01/15 08:44:29;;;;;;;5.57;1.15;;;1.80;99.90;;;;;;20583067;28;20050;-42
2024/01/15 08:54:30;;;;;;;4.32;0.70;;;1.70;99.90;;;;;;20585274;28;20414;-43
2024/01/15 09:04:30;;;;;;;7.00;0.93;;;1.70;99.90;;;;;;20574120;28;20050;-43
2024/01/15 09:14:31;;;;;;;13.93;2.70;;;1.80;99.90;;;;;;20580698;28;20100;-42
2024/01/15 09:24:32;;;;;;;9.07;1.40;;;1.80;99.90;;;;;;20582981;28;20569;-42
2024/01/15 09:34:33;;;;;;;10.70;1.08;;;1.90;99.90;;;;;;20576494;28;20458;-42
2024/01/15 09:44:34;;;;;;;5.05;0.90;;;2.10;99.90;;;;;;20577853;28;20478;-42
2024/01/15 09:54:35;;;;;;;6.68;1.65;;;1.90;99.90;;;;;;20579300;28;20034;-43
2024/01/15 10:04:36;;;;;;;11.68;1.23;;;2.10;99.90;;;;;;20583158;28;20042;-41
2024/01/15 10:14:37;;;;;;;7.63;0.98;;;2.40;99.90;;;;;;20572831;28;20034;-41
2024/01/15 10:24:39;;;;;;;11.45;0.85;;;2.80;99.90;;;;;;20576799;28;20054;-41
2024/01/15 10:34:41;;;;;;;6.05;0.63;;;3.10;99.90;;;;;;20578544;28;20290;-43
2024/01/15 10:44:43;;;;;;;9.15;1.15;;;2.80;99.90;;;;;;20576239;28;20051;-42
2024/01/15 10:54:45;;;;;;;6.57;0.90;;;2.90;99.90;;;;;;20564958;28;20167;-42
2024/01/15 11:04:45;;;;;;;3.92;0.40;;;3.00;99.90;;;;;;20587681;28;20132;-42
2024/01/15 11:14:47;;;;;;;5.75;0.77;;;3.00;99.90;;;;;;20588879;28;20428;-42
2024/01/15 11:24:48;;;;;;;2.25;0.32;;;2.90;96.50;;;;;;20594565;28;20128;-42
2024/01/15 11:35:02;;;;;;;4.47;0.65;;;2.80;99.90;;;;;;20578026;28;20418;-42
2024/01/15 11:45:04;;;;;;;6.30;0.63;;;2.70;99.90;;;;;;20577043;28;20062;-42
2024/01/15 11:55:12;;;;;;;6.80;0.80;;;2.70;99.90;;;;;;20581700;28;20034;-43
2024/01/15 12:05:17;;;;;;;7.00;0.68;;;2.60;99.90;;;;;;20575897;28;20539;-42
2024/01/15 12:15:18;;;;;;;6.05;2.15;;;2.70;99.90;;;;;;20577807;28;20137;-42
2024/01/15 12:25:19;;;;;;;6.40;0.80;;;2.90;99.90;;;;;;20575887;28;20124;-43
2024/01/15 12:35:20;;;;;;;6.78;1.00;;;3.00;99.90;;;;;;20577515;28;20049;-43
2024/01/15 12:45:20;;;;;;;7.23;1.77;;;3.50;99.90;;;;;;20576400;28;20042;-43
2024/01/15 12:55:21;;;;;;;6.43;0.70;;;4.00;92.90;;;;;;20576358;28;20438;-43
2024/01/15 13:05:22;;;;;;;8.27;0.93;;;3.60;35.10;;;;;;20577108;28;20777;-43
2024/01/15 13:15:23;;;;;;;10.55;1.23;;;3.80;86.60;;;;;;20568624;28;20454;-42
2024/01/15 13:25:24;;;;;;;7.97;1.10;;;4.40;27.50;;;;;;20590816;28;20042;-42
2024/01/15 13:35:25;;;;;;;6.00;0.90;;;4.30;11.20;;;;;;20585824;28;20545;-43
2024/01/15 13:45:25;;;;;;;4.47;1.00;;;3.70;9.80;;;;;;20588593;28;20039;-42
2024/01/15 13:55:26;;;;;;;5.53;1.08;;;3.20;5.80;;;;;;20591135;28;20367;-42
2024/01/15 14:05:27;;;;;;;5.10;0.88;;;3.00;25.20;;;;;;20590752;28;20038;-42
2024/01/15 14:15:27;;;;;;;6.45;1.23;;;2.90;49.40;;;;;;20579555;28;20041;-42
2024/01/15 14:25:28;;;;;;;9.20;1.33;;;2.80;73.20;;;;;;20582957;28;20070;-42
2024/01/15 14:35:28;;;;;;;14.63;1.70;;;3.00;99.80;;;;;;20568202;28;20050;-42
2024/01/15 14:45:30;;;;;;;12.90;1.40;;;3.30;81.70;;;;;;20563078;28;20190;-42
2024/01/15 14:55:32;;;;;;;6.72;1.20;;;3.50;13.70;;;;;;20563207;28;20038;-42
2024/01/15 15:05:32;;;;;;;11.73;1.40;;;3.30;4.40;;;;;;20563991;28;20133;-42
2024/01/15 15:15:34;;;;;;;11.05;1.00;;;3.20;1.00;;;;;;20556269;28;20042;-42
2024/01/15 15:25:35;;;;;;;8.88;1.15;;;3.00;1.00;;;;;;20558429;28;20046;-43
2024/01/15 15:35:36;;;;;;;6.55;1.05;;;3.00;1.00;;;;;;20559840;28;20161;-43
2024/01/15 15:45:38;;;;;;;8.68;1.52;;;3.20;1.00;;;;;;20563457;28;20077;-43
2024/01/15 15:55:39;;;;;;;5.85;1.30;;;3.20;1.00;;;;;;20556526;28;20038;-43
2024/01/15 16:05:39;;;;;;;9.82;1.10;;;3.10;1.00;;;;;;20550909;28;20391;-43
2024/01/15 16:15:40;;;;;;;8.75;1.08;;;2.90;8.70;;;;;;20556853;28;20054;-42
2024/01/15 16:25:41;;;;;;;3.55;0.75;;;2.70;17.30;;;;;;20555006;28;20298;-43
2024/01/15 16:35:41;;;;;;;7.90;1.67;;;2.50;20.10;;;;;;20559330;28;20455;-41
2024/01/15 16:45:42;;;;;;;12.57;1.88;;;2.50;27.00;;;;;;20558696;28;20047;-43
2024/01/15 16:55:43;;;;;;;9.80;1.48;;;2.50;23.90;;;;;;20565261;28;20034;-52
2024/01/15 17:05:43;;;;;;;7.82;2.28;;;2.40;25.20;;;;;;20595172;28;20505;-42
2024/01/15 17:15:44;;;;;;;7.20;1.80;;;2.40;34.50;;;;;;20596499;28;20039;-42
2024/01/15 17:25:45;;;;;;;9.65;1.73;;;2.40;31.00;;;;;;20583558;28;20331;-47
2024/01/15 17:35:53;;;;;;;10.35;1.75;;;2.30;40.40;;;;;;20570998;28;20525;-42
2024/01/15 17:45:55;;;;;;;7.15;2.13;;;2.40;42.50;;;;;;20572809;28;20050;-43
2024/01/15 17:55:55;;;;;;;8.25;1.60;;;2.50;20.40;;;;;;20562443;28;20059;-42
2024/01/15 18:05:56;;;;;;;6.80;1.50;;;2.30;16.80;;;;;;20562834;28;20148;-43
2024/01/15 18:15:57;;;;;;;5.55;1.20;;;2.20;17.70;;;;;;20565854;28;20134;-43
2024/01/15 18:25:58;;;;;;;12.07;1.88;;;2.00;23.30;;;;;;20568663;28;20138;-42
2024/01/15 18:36:02;;;;;;;11.93;1.67;;;1.80;37.30;;;;;;20564507;28;20092;-42
2024/01/15 18:46:08;;;;;;;9.95;1.45;;;1.90;55.40;;;;;;20578702;28;20057;-43
2024/01/15 18:56:09;;;;;;;14.70;2.80;;;1.90;46.60;;;;;;20564214;28;20039;-43
2024/01/15 19:06:11;;;;;;;7.00;1.50;;;2.10;50.90;;;;;;20556299;28;20068;-42
2024/01/15 19:16:13;;;;;;;12.20;1.42;;;2.20;32.80;;;;;;20535093;28;20030;-43
2024/01/15 19:26:21;;;;;;;14.63;2.20;;;2.40;41.60;;;;;;20566165;28;20550;-43
2024/01/15 19:36:23;;;;;;;14.40;3.30;;;2.40;49.20;;;;;;20550438;28;20566;-43
2024/01/15 19:46:24;;;;;;;16.27;4.75;;;2.10;64.80;;;;;;20530484;28;20043;-43
2024/01/15 19:56:24;;;;;;;5.05;1.52;;;2.10;80.20;;;;;;20561019;28;20081;-43
2024/01/15 20:06:25;;;;;;;7.93;1.50;;;1.80;81.70;;;;;;20556310;28;20105;-42
2024/01/15 20:16:26;;;;;;;6.63;1.15;;;1.70;94.40;;;;;;20556298;28;20038;-42
2024/01/15 20:26:26;;;;;;;8.15;2.53;;;1.50;99.90;;;;;;20567622;28;20086;-43
2024/01/15 20:36:27;;;;;;;7.38;1.50;;;1.50;99.90;;;;;;20580196;28;20516;-44
2024/01/15 20:46:28;;;;;;;8.55;1.90;;;1.80;99.30;;;;;;20578807;28;20549;-42
2024/01/15 20:56:28;;;;;;;5.85;1.38;;;1.70;99.90;;;;;;20562451;28;20051;-42
2024/01/15 21:06:29;;;;;;;7.80;2.00;;;1.80;99.90;;;;;;20585882;28;20437;-42
2024/01/15 21:16:29;;;;;;;8.55;1.30;;;1.70;99.90;;;;;;20593786;28;20113;-42
2024/01/15 21:26:30;;;;;;;8.95;1.70;;;1.50;99.90;;;;;;20605700;28;20386;-42
2024/01/15 21:36:31;;;;;;;7.60;1.95;;;1.40;99.90;;;;;;20608306;28;20043;-43
2024/01/15 21:46:31;;;;;;;9.60;1.45;;;1.40;99.90;;;;;;20601683;28;20039;-41
2024/01/15 21:56:32;;;;;;;9.55;2.35;;;1.30;99.90;;;;;;20602494;28;20503;-42
2024/01/15 22:06:35;;;;;;;6.20;1.20;;;1.20;99.90;;;;;;20594396;28;20038;-42
2024/01/15 22:16:36;;;;;;;8.38;1.02;;;1.20;99.90;;;;;;20599314;28;20041;-43
2024/01/15 22:26:37;;;;;;;5.30;0.70;;;1.50;99.90;;;;;;20591591;28;20046;-43
2024/01/15 22:36:37;;;;;;;8.80;1.10;;;1.60;99.90;;;;;;20589096;28;20034;-43
2024/01/15 22:46:38;;;;;;;8.15;0.80;;;1.30;99.90;;;;;;20602137;28;20046;-42
2024/01/15 22:56:38;;;;;;;4.68;1.17;;;1.20;99.90;;;;;;20584529;28;20045;-43
2024/01/15 23:06:40;;;;;;;9.35;1.27;;;1.20;99.90;;;;;;20597487;28;20164;-43
2024/01/15 23:16:41;;;;;;;3.22;0.75;;;1.00;99.90;;;;;;20593806;28;20034;-43
2024/01/15 23:26:41;;;;;;;7.77;0.93;;;1.00;99.90;;;;;;20596004;28;20042;-43
2024/01/15 23:36:42;;;;;;;6.53;0.98;;;1.10;99.90;;;;;;20602615;28;20454;-42
2024/01/15 23:46:43;;;;;;;4.13;0.85;;;0.90;99.90;;;;;;20590864;28;20088;-42
2024/01/15 23:56:44;;;;;;;7.43;1.20;;;0.90;99.90;;;;;;20591804;28;20038;-43
